createdAt,value
2022-11-28T00:01:51.474Z,4.97
2022-11-28T00:04:19.462Z,4.55
2022-11-28T00:06:50.343Z,4.32
2022-11-28T00:09:19.961Z,4.45
2022-11-28T00:11:49.455Z,4.63
2022-11-28T00:14:19.251Z,5.00
2022-11-28T00:16:48.481Z,4.70
2022-11-28T00:19:16.586Z,4.53
2022-11-28T00:21:45.118Z,4.68
2022-11-28T00:24:12.989Z,4.40
2022-11-28T00:26:42.612Z,4.50
2022-11-28T00:29:11.801Z,4.45
2022-11-28T00:31:44.918Z,4.90
2022-11-28T00:34:14.876Z,4.82
2022-11-28T01:00:14.767Z,5.10
2022-11-28T01:02:42.831Z,5.00
2022-11-28T01:05:10.693Z,5.15
2022-11-28T01:07:43.406Z,4.70
2022-11-28T01:10:12.299Z,4.78
2022-11-28T01:12:40.773Z,4.28
2022-11-28T01:34:58.266Z,3.58
2022-11-28T01:37:26.285Z,3.65
2022-11-28T01:39:54.250Z,3.75
2022-11-28T01:42:22.640Z,4.07
2022-11-28T01:44:50.550Z,4.18
2022-11-28T01:47:23.533Z,4.25
2022-11-28T01:49:53.033Z,5.30
2022-11-28T01:52:22.429Z,4.65
2022-11-28T01:54:55.631Z,4.57
2022-11-28T01:57:27.338Z,5.07
2022-11-28T02:00:06.506Z,4.47
2022-11-28T02:02:54.917Z,4.40
2022-11-28T02:05:23.341Z,4.28
2022-11-28T02:07:52.265Z,4.32
2022-11-28T02:10:40.901Z,3.70
2022-11-28T02:13:27.450Z,3.83
2022-11-28T02:15:58.783Z,3.47
2022-11-28T02:18:58.119Z,4.00
2022-11-28T02:21:52.527Z,3.72
2022-11-28T02:24:31.261Z,3.10
2022-11-28T02:26:59.074Z,3.30
2022-11-28T02:29:54.833Z,3.25
2022-11-28T02:32:40.992Z,2.88
2022-11-28T02:35:14.686Z,3.05
2022-11-28T02:38:20.555Z,2.90
2022-11-28T02:41:02.393Z,3.40
2022-11-28T02:43:41.422Z,2.97
2022-11-28T02:46:30.006Z,2.80
2022-11-28T02:49:04.434Z,3.10
2022-11-28T02:51:47.307Z,3.03
2022-11-28T02:54:17.757Z,2.30
2022-11-28T02:56:50.459Z,2.75
2022-11-28T02:59:45.889Z,2.90
2022-11-28T03:02:25.845Z,2.45
2022-11-28T03:04:58.155Z,2.35
2022-11-28T03:07:33.637Z,2.55
2022-11-28T03:10:20.811Z,2.63
2022-11-28T03:13:04.181Z,3.35
2022-11-28T03:15:58.724Z,3.60
2022-11-28T03:18:34.687Z,4.15
2022-11-28T03:21:20.711Z,4.53
2022-11-28T03:24:03.231Z,4.32
2022-11-28T03:26:44.421Z,5.10
2022-11-28T03:29:41.671Z,6.18
2022-11-28T03:32:20.499Z,8.37
2022-11-28T03:34:55.331Z,9.50
2022-11-28T03:37:27.936Z,8.68
2022-11-28T03:40:00.268Z,7.68
2022-11-28T03:42:32.843Z,7.10
2022-11-28T03:45:22.558Z,6.20
2022-11-28T03:48:03.358Z,6.03
2022-11-28T03:50:41.000Z,5.40
2022-11-28T03:53:28.398Z,4.57
2022-11-28T03:56:08.913Z,3.80
2022-11-28T03:58:45.556Z,3.60
2022-11-28T04:01:28.880Z,4.40
2022-11-28T04:04:26.996Z,4.68
2022-11-28T04:06:54.962Z,4.80
2022-11-28T04:09:37.947Z,4.25
2022-11-28T04:12:33.991Z,4.05
2022-11-28T04:15:08.715Z,3.72
2022-11-28T04:17:47.929Z,3.25
2022-11-28T04:20:38.930Z,3.60
2022-11-28T04:23:12.048Z,3.20
2022-11-28T04:25:45.495Z,2.80
2022-11-28T04:28:19.566Z,3.05
2022-11-28T04:30:50.250Z,2.78
2022-11-28T04:33:21.728Z,2.80
2022-11-28T04:35:53.290Z,2.78
2022-11-28T04:38:23.719Z,2.70
2022-11-28T04:40:58.006Z,3.08
2022-11-28T04:43:31.020Z,2.78
2022-11-28T04:46:06.290Z,2.80
2022-11-28T04:48:34.751Z,2.83
2022-11-28T04:51:15.178Z,3.10
2022-11-28T04:54:05.447Z,2.55
2022-11-28T04:56:45.301Z,3.17
2022-11-28T04:59:15.053Z,2.67
2022-11-28T05:01:46.375Z,2.92
2022-11-28T05:04:18.195Z,2.50
2022-11-28T05:06:46.395Z,3.33
2022-11-28T05:09:14.525Z,2.85
2022-11-28T05:11:42.615Z,2.75
2022-11-28T05:14:10.535Z,3.00
2022-11-28T05:16:38.989Z,2.78
2022-11-28T05:19:07.036Z,2.35
2022-11-28T05:21:35.200Z,2.78
2022-11-28T05:24:03.191Z,2.70
2022-11-28T05:26:32.811Z,3.10
2022-11-28T05:29:00.911Z,2.90
2022-11-28T05:31:29.476Z,3.20
2022-11-28T05:33:57.731Z,2.88
2022-11-28T05:36:26.563Z,3.22
2022-11-28T05:38:54.559Z,3.47
2022-11-28T05:41:25.645Z,3.90
2022-11-28T05:43:54.060Z,3.78
2022-11-28T05:46:22.244Z,3.58
2022-11-28T05:48:50.685Z,4.13
2022-11-28T05:51:18.815Z,4.03
2022-11-28T05:53:46.739Z,5.03
2022-11-28T05:56:20.612Z,6.50
2022-11-28T05:58:48.428Z,7.68
2022-11-28T06:01:17.673Z,7.20
2022-11-28T06:03:46.767Z,7.18
2022-11-28T06:06:21.565Z,6.47
2022-11-28T06:08:53.350Z,5.85
2022-11-28T06:11:22.914Z,5.80
2022-11-28T06:13:51.539Z,5.53
2022-11-28T06:16:22.914Z,5.40
2022-11-28T06:18:55.622Z,5.30
2022-11-28T06:21:24.668Z,5.20
2022-11-28T06:23:52.763Z,7.07
2022-11-28T06:26:23.057Z,6.85
2022-11-28T06:28:51.954Z,6.53
2022-11-28T06:31:22.657Z,7.72
2022-11-28T06:33:51.191Z,8.10
2022-11-28T06:36:20.067Z,8.43
2022-11-28T06:38:48.350Z,7.30
2022-11-28T06:41:18.913Z,7.40
2022-11-28T06:43:47.042Z,7.35
2022-11-28T06:46:17.181Z,7.82
2022-11-28T06:48:47.335Z,7.28
2022-11-28T06:51:16.130Z,7.05
2022-11-28T06:53:44.728Z,8.10
2022-11-28T06:56:16.654Z,7.45
2022-11-28T06:58:46.774Z,6.40
2022-11-28T07:01:20.641Z,6.78
2022-11-28T07:03:49.577Z,7.00
2022-11-28T07:06:20.162Z,7.43
2022-11-28T07:08:50.754Z,7.63
2022-11-28T07:11:27.272Z,6.43
2022-11-28T07:13:56.404Z,8.05
2022-11-28T07:16:32.098Z,7.45
2022-11-28T07:19:01.066Z,8.20
2022-11-28T07:21:29.581Z,7.22
2022-11-28T07:23:59.838Z,8.07
2022-11-28T07:26:28.302Z,8.05
2022-11-28T07:28:58.479Z,7.35
2022-11-28T07:31:32.045Z,8.50
2022-11-28T07:34:03.671Z,8.60
2022-11-28T07:36:31.993Z,7.50
2022-11-28T07:39:03.403Z,7.68
2022-11-28T07:41:32.263Z,8.82
2022-11-28T07:44:02.099Z,8.82
2022-11-28T07:46:32.434Z,8.40
2022-11-28T07:49:01.095Z,7.78
2022-11-28T07:51:32.215Z,8.32
2022-11-28T07:54:01.768Z,7.57
2022-11-28T07:56:57.131Z,7.07
2022-11-28T07:59:21.900Z,6.50
2022-11-28T08:01:51.212Z,6.00
2022-11-28T08:04:20.964Z,6.00
2022-11-28T08:06:49.463Z,6.50
2022-11-28T08:09:17.349Z,5.63
2022-11-28T08:11:45.597Z,5.53
2022-11-28T08:14:14.632Z,5.78
2022-11-28T08:16:49.753Z,5.43
2022-11-28T08:19:19.468Z,5.68
2022-11-28T08:21:49.433Z,5.40
2022-11-28T08:24:18.180Z,5.15
2022-11-28T08:26:46.297Z,4.85
2022-11-28T08:29:14.581Z,4.82
2022-11-28T08:31:42.699Z,4.88
2022-11-28T08:34:11.119Z,4.90
2022-11-28T08:36:39.265Z,5.10
2022-11-28T08:39:24.502Z,4.70
2022-11-28T08:41:57.511Z,5.03
2022-11-28T08:44:30.285Z,4.78
2022-11-28T08:46:58.769Z,4.72
2022-11-28T08:49:27.313Z,4.60
2022-11-28T08:51:55.331Z,4.05
2022-11-28T08:54:23.444Z,5.10
2022-11-28T08:56:51.278Z,4.63
2022-11-28T08:59:19.598Z,4.32
2022-11-28T09:01:47.695Z,4.75
2022-11-28T09:04:16.309Z,4.63
2022-11-28T09:06:44.886Z,4.57
2022-11-28T09:09:13.051Z,4.75
2022-11-28T09:11:42.726Z,4.40
2022-11-28T09:14:10.836Z,4.70
2022-11-28T09:16:40.618Z,4.85
2022-11-28T09:19:11.178Z,4.25
2022-11-28T09:21:40.277Z,4.72
2022-11-28T09:24:09.626Z,4.38
2022-11-28T09:26:37.954Z,4.28
2022-11-28T09:29:06.742Z,4.90
2022-11-28T09:31:34.892Z,4.40
2022-11-28T09:34:04.425Z,3.70
2022-11-28T09:36:33.312Z,4.50
2022-11-28T09:39:02.515Z,4.53
2022-11-28T09:41:30.524Z,4.55
2022-11-28T09:44:09.526Z,4.03
2022-11-28T09:46:39.304Z,4.18
2022-11-28T09:49:31.328Z,3.75
2022-11-28T09:52:10.780Z,3.67
2022-11-28T09:54:47.387Z,3.40
2022-11-28T09:57:49.113Z,3.57
2022-11-28T10:00:26.639Z,3.67
2022-11-28T10:02:57.962Z,5.53
2022-11-28T10:05:53.974Z,9.40
2022-11-28T10:08:38.761Z,10.45
2022-11-28T10:11:32.725Z,8.25
2022-11-28T10:14:25.786Z,9.82
2022-11-28T10:17:17.904Z,10.30
2022-11-28T10:20:01.719Z,9.20
2022-11-28T10:22:58.975Z,6.50
2022-11-28T10:26:05.605Z,6.03
2022-11-28T10:28:38.317Z,5.63
2022-11-28T10:31:14.958Z,5.50
2022-11-28T10:33:56.476Z,6.00
2022-11-28T10:37:12.794Z,5.95
2022-11-28T10:39:44.387Z,5.93
2022-11-28T10:42:27.689Z,6.53
2022-11-28T10:45:43.823Z,6.43
2022-11-28T10:55:38.974Z,4.47
2022-11-28T10:58:36.941Z,3.90
2022-11-28T11:01:06.528Z,4.10
2022-11-28T11:03:36.529Z,6.70
2022-11-28T11:06:04.809Z,6.45
2022-11-28T11:08:38.394Z,5.68
2022-11-28T11:11:16.365Z,7.30
2022-11-28T11:14:09.442Z,6.07
2022-11-28T11:17:07.197Z,7.20
2022-11-28T11:19:38.005Z,7.32
2022-11-28T11:22:21.896Z,6.60
2022-11-28T11:25:16.805Z,5.88
2022-11-28T11:28:03.482Z,6.70
2022-11-28T11:30:35.581Z,6.38
2022-11-28T11:33:06.857Z,8.13
2022-11-28T11:35:37.289Z,8.65
2022-11-28T11:38:38.021Z,7.07
2022-11-28T11:41:28.309Z,8.98
2022-11-28T11:43:57.903Z,10.68
2022-11-28T11:46:26.592Z,9.40
2022-11-28T11:48:54.725Z,7.70
2022-11-28T11:51:27.016Z,7.63
2022-11-28T11:54:14.723Z,7.03
2022-11-28T11:59:25.120Z,5.22
2022-11-28T12:01:59.085Z,4.63
2022-11-28T12:04:46.263Z,4.07
2022-11-28T12:07:28.762Z,4.13
2022-11-28T12:10:03.176Z,4.50
2022-11-28T12:12:38.002Z,4.47
2022-11-28T12:15:16.794Z,5.32
2022-11-28T12:18:01.330Z,5.90
2022-11-28T12:20:44.853Z,5.18
2022-11-28T12:23:24.491Z,5.10
2022-11-28T12:26:03.430Z,4.40
2022-11-28T12:29:00.702Z,4.50
2022-11-28T12:32:06.395Z,6.23
2022-11-28T12:34:41.961Z,17.13
2022-11-28T12:37:20.088Z,18.73
2022-11-28T12:40:09.935Z,16.50
2022-11-28T12:42:56.122Z,11.88
2022-11-28T12:45:34.029Z,9.05
2022-11-28T12:48:23.864Z,9.30
2022-11-28T12:51:11.697Z,7.13
2022-11-28T12:53:43.056Z,7.22
2022-11-28T12:56:35.076Z,8.35
2022-11-28T12:59:15.487Z,6.85
2022-11-28T13:01:46.763Z,6.25
2022-11-28T13:04:33.021Z,5.25
2022-11-28T13:07:36.522Z,5.60
2022-11-28T13:10:17.508Z,4.85
2022-11-28T13:13:02.572Z,5.18
2022-11-28T13:15:55.281Z,4.03
2022-11-28T13:18:46.028Z,4.43
2022-11-28T13:21:40.679Z,4.55
2022-11-28T13:24:29.392Z,5.13
2022-11-28T13:27:12.430Z,5.97
2022-11-28T13:29:57.774Z,5.72
2022-11-28T13:32:38.697Z,5.35
2022-11-28T13:35:14.142Z,5.25
2022-11-28T13:40:42.195Z,4.63
2022-11-28T13:43:33.254Z,4.20
2022-11-28T13:46:01.790Z,4.00
2022-11-28T13:49:12.565Z,3.60
2022-11-28T13:51:31.982Z,3.90
2022-11-28T13:54:21.847Z,4.00
2022-11-28T13:57:31.130Z,5.30
2022-11-28T14:00:02.116Z,6.70
2022-11-28T14:02:37.321Z,5.60
2022-11-28T14:05:15.052Z,4.10
2022-11-28T14:07:47.982Z,3.95
2022-11-28T14:10:49.238Z,3.95
2022-11-28T14:13:31.745Z,3.83
2022-11-28T14:16:15.577Z,3.45
2022-11-28T14:19:04.058Z,3.45
2022-11-28T14:21:54.335Z,3.08
2022-11-28T14:24:25.019Z,3.00
2022-11-28T14:27:00.153Z,3.28
2022-11-28T14:29:42.152Z,3.08
2022-11-28T14:32:38.496Z,2.97
2022-11-28T14:35:17.113Z,2.80
2022-11-28T14:37:55.484Z,2.72
2022-11-28T14:40:57.848Z,2.72
2022-11-28T14:43:34.924Z,3.05
2022-11-28T14:46:15.796Z,3.95
2022-11-28T14:48:59.489Z,3.55
2022-11-28T14:51:48.610Z,4.05
2022-11-28T14:54:43.035Z,4.28
2022-11-28T14:57:33.012Z,3.83
2022-11-28T15:00:08.317Z,3.00
2022-11-28T15:03:01.340Z,2.60
2022-11-28T15:05:50.897Z,2.88
2022-11-28T15:08:38.392Z,2.80
2022-11-28T15:11:28.314Z,2.65
2022-11-28T15:13:59.904Z,2.92
2022-11-28T15:16:31.603Z,3.38
2022-11-28T15:19:07.120Z,3.70
2022-11-28T15:21:47.105Z,3.20
2022-11-28T15:24:17.824Z,2.92
2022-11-28T15:26:47.445Z,3.40
2022-11-28T15:29:22.010Z,3.83
2022-11-28T15:31:53.539Z,3.70
2022-11-28T15:34:30.710Z,3.95
2022-11-28T15:37:18.644Z,3.75
2022-11-28T15:39:49.760Z,3.72
2022-11-28T15:42:30.674Z,3.20
2022-11-28T15:45:24.999Z,2.85
2022-11-28T15:47:54.917Z,2.95
2022-11-28T15:50:29.192Z,2.83
2022-11-28T15:53:04.020Z,2.30
2022-11-28T15:55:34.946Z,2.47
2022-11-28T15:58:31.596Z,2.58
2022-11-28T16:01:09.624Z,3.15
2022-11-28T16:06:30.891Z,3.00
2022-11-28T16:09:24.708Z,2.97
2022-11-28T16:11:54.382Z,2.42
2022-11-28T16:14:35.492Z,2.58
2022-11-28T16:17:10.838Z,2.95
2022-11-28T16:19:39.018Z,2.35
2022-11-28T16:22:12.075Z,1.77
2022-11-28T16:24:57.635Z,2.30
2022-11-28T16:27:38.903Z,2.88
2022-11-28T16:30:37.399Z,2.75
2022-11-28T16:33:38.991Z,2.72
2022-11-28T16:36:31.383Z,2.70
2022-11-28T16:39:11.956Z,1.95
2022-11-28T16:41:43.090Z,2.42
2022-11-28T16:44:16.594Z,2.13
2022-11-28T16:46:53.114Z,2.40
2022-11-28T16:49:36.798Z,2.23
2022-11-28T16:52:24.490Z,1.80
2022-11-28T16:54:56.870Z,1.77
2022-11-28T16:57:30.238Z,2.10
2022-11-28T17:00:01.081Z,1.90
2022-11-28T17:02:29.202Z,2.40
2022-11-28T17:04:57.961Z,1.92
2022-11-28T17:07:26.071Z,2.47
2022-11-28T17:09:54.172Z,2.90
2022-11-28T17:12:33.032Z,2.47
2022-11-28T17:15:01.136Z,2.80
2022-11-28T17:17:31.029Z,3.30
2022-11-28T17:20:00.679Z,2.60
2022-11-28T17:22:45.835Z,2.30
2022-11-28T17:25:20.308Z,2.45
2022-11-28T17:27:48.586Z,2.58
2022-11-28T17:30:21.048Z,2.55
2022-11-28T17:32:49.169Z,2.40
2022-11-28T17:35:23.617Z,2.30
2022-11-28T17:37:51.712Z,2.70
2022-11-28T17:40:34.764Z,2.90
2022-11-28T17:43:03.703Z,3.00
2022-11-28T17:45:35.152Z,2.75
2022-11-28T17:48:03.320Z,2.97
2022-11-28T17:50:32.060Z,3.72
2022-11-28T17:53:01.797Z,3.50
2022-11-28T17:55:29.768Z,3.70
2022-11-28T17:57:58.494Z,3.50
2022-11-28T18:00:29.474Z,4.80
2022-11-28T18:02:58.479Z,4.20
2022-11-28T18:05:26.747Z,3.67
2022-11-28T18:07:55.946Z,5.20
2022-11-28T18:10:25.542Z,5.60
2022-11-28T18:12:54.142Z,4.90
2022-11-28T18:15:23.150Z,7.88
2022-11-28T18:17:51.011Z,8.85
2022-11-28T18:20:20.352Z,12.40
2022-11-28T18:22:49.001Z,16.65
2022-11-28T18:25:18.820Z,17.05
2022-11-28T18:27:47.537Z,13.80
2022-11-28T18:30:16.803Z,9.98
2022-11-28T18:32:44.866Z,6.22
2022-11-28T18:35:13.091Z,5.55
2022-11-28T18:37:40.885Z,5.25
2022-11-28T18:40:09.698Z,5.00
2022-11-28T18:42:38.725Z,5.82
2022-11-28T18:45:10.389Z,5.13
2022-11-28T18:47:39.339Z,5.07
2022-11-28T18:50:08.936Z,5.40
2022-11-28T18:52:37.025Z,5.20
2022-11-28T18:55:08.154Z,5.00
2022-11-28T18:57:36.804Z,5.07
2022-11-28T19:00:07.201Z,4.55
2022-11-28T19:02:35.791Z,4.32
2022-11-28T19:05:04.721Z,6.45
2022-11-28T19:07:33.498Z,10.45
2022-11-28T19:10:02.597Z,19.95
2022-11-28T19:12:31.041Z,16.15
2022-11-28T19:15:02.501Z,14.00
2022-11-28T19:17:31.532Z,13.05
2022-11-28T19:19:59.468Z,11.50
2022-11-28T19:22:27.504Z,15.07
2022-11-28T19:24:55.458Z,12.20
2022-11-28T19:27:23.429Z,9.73
2022-11-28T19:29:51.708Z,8.70
2022-11-28T19:32:19.814Z,6.18
2022-11-28T19:34:52.621Z,5.85
2022-11-28T19:37:20.737Z,4.32
2022-11-28T19:39:48.769Z,4.53
2022-11-28T19:42:18.232Z,5.82
2022-11-28T19:44:46.622Z,8.32
2022-11-28T19:47:14.610Z,8.05
2022-11-28T19:49:44.402Z,7.60
2022-11-28T19:52:12.649Z,5.35
2022-11-28T19:54:42.593Z,5.30
2022-11-28T19:57:11.553Z,4.25
2022-11-28T19:59:39.734Z,4.50
2022-11-28T20:02:09.317Z,4.95
2022-11-28T20:04:39.287Z,4.65
2022-11-28T20:07:07.565Z,5.40
2022-11-28T20:09:37.184Z,6.40
2022-11-28T20:12:05.668Z,8.32
2022-11-28T20:14:35.063Z,9.38
2022-11-28T20:17:04.513Z,9.35
2022-11-28T20:19:34.537Z,7.20
2022-11-28T20:22:02.796Z,6.78
2022-11-28T20:24:31.698Z,7.30
2022-11-28T20:26:59.663Z,6.90
2022-11-28T20:29:29.173Z,6.93
2022-11-28T20:31:57.605Z,6.60
2022-11-28T20:34:27.350Z,9.43
2022-11-28T20:36:55.477Z,10.73
2022-11-28T20:39:24.570Z,9.63
2022-11-28T20:41:52.505Z,9.13
2022-11-28T20:44:22.473Z,8.93
2022-11-28T20:46:50.542Z,9.13
2022-11-28T20:49:18.751Z,8.27
2022-11-28T20:51:48.925Z,7.20
2022-11-28T20:54:17.583Z,7.47
2022-11-28T20:57:13.307Z,6.95
2022-11-28T20:59:37.726Z,7.85
2022-11-28T21:02:05.770Z,7.88
2022-11-28T21:04:33.923Z,9.75
2022-11-28T21:07:01.989Z,9.20
2022-11-28T21:09:30.044Z,8.30
2022-11-28T21:11:59.208Z,8.15
2022-11-28T21:14:30.354Z,7.57
2022-11-28T21:16:59.832Z,7.38
2022-11-28T21:19:28.012Z,7.55
2022-11-28T21:21:56.110Z,6.95
2022-11-28T21:24:24.159Z,6.65
2022-11-28T21:26:54.280Z,6.90
2022-11-28T21:29:24.165Z,7.53
2022-11-28T21:31:55.756Z,7.32
2022-11-28T21:34:24.306Z,7.60
2022-11-28T21:36:54.266Z,7.20
2022-11-28T21:39:23.461Z,6.90
2022-11-28T21:41:51.483Z,6.90
2022-11-28T21:44:19.911Z,7.00
2022-11-28T21:46:48.183Z,7.13
2022-11-28T21:49:17.319Z,6.50
2022-11-28T21:51:45.958Z,6.65
2022-11-28T21:54:14.214Z,6.18
2022-11-28T21:56:45.993Z,6.60
2022-11-28T21:59:14.544Z,6.93
2022-11-28T22:01:42.810Z,6.10
2022-11-28T22:04:11.814Z,5.72
2022-11-28T22:06:40.741Z,4.97
2022-11-28T22:09:09.914Z,4.65
2022-11-28T22:11:40.050Z,4.75
2022-11-28T22:14:08.550Z,3.95
2022-11-28T22:16:36.759Z,5.43
2022-11-28T22:19:05.424Z,6.28
2022-11-28T22:21:54.333Z,8.32
2022-11-28T22:24:24.135Z,7.63
2022-11-28T22:26:53.483Z,7.65
2022-11-28T22:29:22.298Z,6.75
2022-11-28T22:31:50.433Z,6.47
2022-11-28T22:34:19.807Z,5.50
2022-11-28T22:36:47.854Z,5.70
2022-11-28T22:39:16.082Z,4.72
2022-11-28T22:41:44.259Z,4.30
2022-11-28T22:44:12.526Z,4.20
2022-11-28T22:46:40.800Z,3.60
2022-11-28T22:49:11.698Z,3.65
2022-11-28T22:51:40.425Z,3.15
2022-11-28T22:54:12.802Z,2.80
2022-11-28T22:56:41.083Z,2.72
2022-11-28T22:59:16.731Z,3.00
2022-11-28T23:01:45.081Z,3.53
2022-11-28T23:04:13.652Z,3.00
2022-11-28T23:06:42.700Z,3.60
2022-11-28T23:09:14.681Z,3.58
2022-11-28T23:11:43.256Z,3.50
2022-11-28T23:14:16.093Z,3.78
2022-11-28T23:16:45.248Z,4.05
2022-11-28T23:19:17.485Z,4.22
2022-11-28T23:21:49.290Z,3.67
2022-11-28T23:24:20.575Z,3.90
2022-11-28T23:26:51.588Z,3.40
2022-11-28T23:29:20.344Z,3.78
2022-11-28T23:31:50.379Z,3.85
2022-11-28T23:34:18.294Z,3.38
2022-11-28T23:36:47.695Z,3.40
2022-11-28T23:39:23.698Z,3.45
2022-11-28T23:41:52.333Z,3.20
2022-11-28T23:44:21.070Z,2.88
2022-11-28T23:46:49.969Z,2.60
2022-11-28T23:49:18.051Z,2.35
2022-11-28T23:51:46.729Z,2.10
2022-11-28T23:54:15.000Z,2.28
2022-11-28T23:56:44.451Z,1.90
2022-11-28T23:59:13.187Z,1.95
